sensor_id;sensor_type;location;lat;lon;timestamp;P1;durP1;ratioP1;P2;durP2;ratioP2
9328;SDS011;4703;48.748;19.142;2023-10-19T00:00:55;7.40;;;5.80;;
9328;SDS011;4703;48.748;19.142;2023-10-19T00:03:23;7.30;;;6.20;;
9328;SDS011;4703;48.748;19.142;2023-10-19T00:05:52;11.27;;;7.47;;
9328;SDS011;4703;48.748;19.142;2023-10-19T00:08:22;9.23;;;7.17;;
9328;SDS011;4703;48.748;19.142;2023-10-19T00:10:50;9.23;;;5.90;;
9328;SDS011;4703;48.748;19.142;2023-10-19T00:13:31;8.13;;;7.00;;
9328;SDS011;4703;48.748;19.142;2023-10-19T00:15:58;8.30;;;6.20;;
9328;SDS011;4703;48.748;19.142;2023-10-19T00:18:25;8.20;;;6.43;;
9328;SDS011;4703;48.748;19.142;2023-10-19T00:20:54;6.97;;;5.50;;
9328;SDS011;4703;48.748;19.142;2023-10-19T00:23:40;9.47;;;6.07;;
9328;SDS011;4703;48.748;19.142;2023-10-19T00:26:07;14.83;;;5.93;;
9328;SDS011;4703;48.748;19.142;2023-10-19T00:28:41;8.00;;;5.93;;
9328;SDS011;4703;48.748;19.142;2023-10-19T00:31:11;8.10;;;6.53;;
9328;SDS011;4703;48.748;19.142;2023-10-19T00:33:40;8.23;;;5.90;;
9328;SDS011;4703;48.748;19.142;2023-10-19T00:36:10;8.40;;;7.30;;
9328;SDS011;4703;48.748;19.142;2023-10-19T00:38:41;6.40;;;5.50;;
9328;SDS011;4703;48.748;19.142;2023-10-19T00:41:23;9.80;;;5.50;;
9328;SDS011;4703;48.748;19.142;2023-10-19T00:43:58;6.77;;;4.93;;
9328;SDS011;4703;48.748;19.142;2023-10-19T00:46:38;8.10;;;5.50;;
9328;SDS011;4703;48.748;19.142;2023-10-19T00:49:09;10.87;;;6.77;;
9328;SDS011;4703;48.748;19.142;2023-10-19T00:51:43;9.93;;;5.90;;
9328;SDS011;4703;48.748;19.142;2023-10-19T00:54:27;8.23;;;5.50;;
9328;SDS011;4703;48.748;19.142;2023-10-19T00:57:02;8.77;;;6.07;;
9328;SDS011;4703;48.748;19.142;2023-10-19T00:59:34;5.47;;;4.93;;
9328;SDS011;4703;48.748;19.142;2023-10-19T01:02:09;7.87;;;5.80;;
9328;SDS011;4703;48.748;19.142;2023-10-19T01:05:08;6.60;;;5.60;;
9328;SDS011;4703;48.748;19.142;2023-10-19T01:07:39;9.10;;;5.50;;
9328;SDS011;4703;48.748;19.142;2023-10-19T01:10:11;7.67;;;5.63;;
9328;SDS011;4703;48.748;19.142;2023-10-19T01:12:46;7.27;;;5.23;;
9328;SDS011;4703;48.748;19.142;2023-10-19T01:15:14;9.23;;;6.40;;
9328;SDS011;4703;48.748;19.142;2023-10-19T01:20:20;7.07;;;6.07;;
9328;SDS011;4703;48.748;19.142;2023-10-19T01:22:58;6.97;;;5.90;;
9328;SDS011;4703;48.748;19.142;2023-10-19T01:28:45;8.80;;;5.90;;
9328;SDS011;4703;48.748;19.142;2023-10-19T01:31:15;9.00;;;6.20;;
9328;SDS011;4703;48.748;19.142;2023-10-19T01:33:58;8.70;;;6.40;;
9328;SDS011;4703;48.748;19.142;2023-10-19T01:36:32;6.97;;;6.27;;
9328;SDS011;4703;48.748;19.142;2023-10-19T01:39:09;6.03;;;5.43;;
9328;SDS011;4703;48.748;19.142;2023-10-19T01:41:38;6.70;;;5.63;;
9328;SDS011;4703;48.748;19.142;2023-10-19T01:44:08;6.43;;;5.47;;
9328;SDS011;4703;48.748;19.142;2023-10-19T01:46:40;5.90;;;5.10;;
9328;SDS011;4703;48.748;19.142;2023-10-19T01:49:10;5.37;;;4.87;;
9328;SDS011;4703;48.748;19.142;2023-10-19T01:51:37;7.70;;;5.63;;
9328;SDS011;4703;48.748;19.142;2023-10-19T01:54:08;9.00;;;5.83;;
9328;SDS011;4703;48.748;19.142;2023-10-19T01:56:36;8.27;;;5.70;;
9328;SDS011;4703;48.748;19.142;2023-10-19T01:59:06;6.67;;;5.47;;
9328;SDS011;4703;48.748;19.142;2023-10-19T02:01:35;9.10;;;5.40;;
9328;SDS011;4703;48.748;19.142;2023-10-19T02:04:05;5.77;;;4.83;;
9328;SDS011;4703;48.748;19.142;2023-10-19T02:06:35;7.93;;;6.00;;
9328;SDS011;4703;48.748;19.142;2023-10-19T02:09:08;9.93;;;5.60;;
9328;SDS011;4703;48.748;19.142;2023-10-19T02:11:45;6.70;;;5.00;;
9328;SDS011;4703;48.748;19.142;2023-10-19T02:14:14;7.90;;;5.90;;
9328;SDS011;4703;48.748;19.142;2023-10-19T02:16:46;10.43;;;6.40;;
9328;SDS011;4703;48.748;19.142;2023-10-19T02:19:20;8.53;;;6.17;;
9328;SDS011;4703;48.748;19.142;2023-10-19T02:21:51;6.17;;;4.33;;
9328;SDS011;4703;48.748;19.142;2023-10-19T02:24:24;6.87;;;5.97;;
9328;SDS011;4703;48.748;19.142;2023-10-19T02:26:53;8.13;;;6.07;;
9328;SDS011;4703;48.748;19.142;2023-10-19T02:29:23;6.70;;;5.90;;
9328;SDS011;4703;48.748;19.142;2023-10-19T02:31:52;7.13;;;6.10;;
9328;SDS011;4703;48.748;19.142;2023-10-19T02:34:21;6.57;;;5.53;;
9328;SDS011;4703;48.748;19.142;2023-10-19T02:36:49;6.27;;;5.20;;
9328;SDS011;4703;48.748;19.142;2023-10-19T02:39:16;6.93;;;6.20;;
9328;SDS011;4703;48.748;19.142;2023-10-19T02:41:45;5.70;;;5.07;;
9328;SDS011;4703;48.748;19.142;2023-10-19T02:44:17;5.30;;;4.90;;
9328;SDS011;4703;48.748;19.142;2023-10-19T02:46:49;8.27;;;5.33;;
9328;SDS011;4703;48.748;19.142;2023-10-19T02:49:32;7.90;;;5.70;;
9328;SDS011;4703;48.748;19.142;2023-10-19T02:52:04;5.23;;;4.83;;
9328;SDS011;4703;48.748;19.142;2023-10-19T02:54:32;9.10;;;6.07;;
9328;SDS011;4703;48.748;19.142;2023-10-19T02:57:00;5.83;;;5.23;;
9328;SDS011;4703;48.748;19.142;2023-10-19T02:59:28;5.50;;;5.00;;
9328;SDS011;4703;48.748;19.142;2023-10-19T03:01:57;7.30;;;5.47;;
9328;SDS011;4703;48.748;19.142;2023-10-19T03:04:43;6.83;;;5.40;;
9328;SDS011;4703;48.748;19.142;2023-10-19T03:07:11;7.50;;;6.10;;
9328;SDS011;4703;48.748;19.142;2023-10-19T03:09:39;6.33;;;5.60;;
9328;SDS011;4703;48.748;19.142;2023-10-19T03:12:10;6.93;;;5.60;;
9328;SDS011;4703;48.748;19.142;2023-10-19T03:14:40;5.93;;;5.27;;
9328;SDS011;4703;48.748;19.142;2023-10-19T03:17:07;6.00;;;5.40;;
9328;SDS011;4703;48.748;19.142;2023-10-19T03:19:35;8.10;;;5.90;;
9328;SDS011;4703;48.748;19.142;2023-10-19T03:22:02;5.70;;;5.20;;
9328;SDS011;4703;48.748;19.142;2023-10-19T03:24:32;7.83;;;5.47;;
9328;SDS011;4703;48.748;19.142;2023-10-19T03:27:03;5.97;;;5.37;;
9328;SDS011;4703;48.748;19.142;2023-10-19T03:29:51;7.27;;;6.57;;
9328;SDS011;4703;48.748;19.142;2023-10-19T03:32:23;14.00;;;9.73;;
9328;SDS011;4703;48.748;19.142;2023-10-19T03:34:55;9.27;;;8.27;;
9328;SDS011;4703;48.748;19.142;2023-10-19T03:37:23;11.27;;;7.83;;
9328;SDS011;4703;48.748;19.142;2023-10-19T03:39:52;12.63;;;9.30;;
9328;SDS011;4703;48.748;19.142;2023-10-19T03:42:23;8.70;;;7.20;;
9328;SDS011;4703;48.748;19.142;2023-10-19T03:44:59;9.77;;;7.50;;
9328;SDS011;4703;48.748;19.142;2023-10-19T03:47:33;12.70;;;7.87;;
9328;SDS011;4703;48.748;19.142;2023-10-19T03:50:02;9.60;;;6.93;;
9328;SDS011;4703;48.748;19.142;2023-10-19T03:52:40;8.00;;;6.67;;
9328;SDS011;4703;48.748;19.142;2023-10-19T03:55:08;7.20;;;6.30;;
9328;SDS011;4703;48.748;19.142;2023-10-19T03:57:41;9.53;;;6.80;;
9328;SDS011;4703;48.748;19.142;2023-10-19T04:00:13;9.07;;;6.77;;
9328;SDS011;4703;48.748;19.142;2023-10-19T04:02:51;7.47;;;6.70;;
9328;SDS011;4703;48.748;19.142;2023-10-19T04:05:22;7.20;;;6.50;;
9328;SDS011;4703;48.748;19.142;2023-10-19T04:07:49;7.37;;;6.60;;
9328;SDS011;4703;48.748;19.142;2023-10-19T04:10:21;9.87;;;7.87;;
9328;SDS011;4703;48.748;19.142;2023-10-19T04:13:00;10.10;;;7.63;;
9328;SDS011;4703;48.748;19.142;2023-10-19T04:15:29;10.70;;;7.40;;
9328;SDS011;4703;48.748;19.142;2023-10-19T04:18:00;7.60;;;6.40;;
9328;SDS011;4703;48.748;19.142;2023-10-19T04:20:27;9.30;;;7.23;;
9328;SDS011;4703;48.748;19.142;2023-10-19T04:23:13;8.00;;;7.20;;
9328;SDS011;4703;48.748;19.142;2023-10-19T04:25:42;9.10;;;6.97;;
9328;SDS011;4703;48.748;19.142;2023-10-19T04:28:13;10.30;;;6.33;;
9328;SDS011;4703;48.748;19.142;2023-10-19T04:30:40;8.30;;;7.00;;
9328;SDS011;4703;48.748;19.142;2023-10-19T04:33:07;8.00;;;7.07;;
9328;SDS011;4703;48.748;19.142;2023-10-19T04:35:38;9.83;;;7.87;;
9328;SDS011;4703;48.748;19.142;2023-10-19T04:38:08;11.60;;;8.53;;
9328;SDS011;4703;48.748;19.142;2023-10-19T04:40:35;9.50;;;7.73;;
9328;SDS011;4703;48.748;19.142;2023-10-19T04:43:02;8.63;;;7.13;;
9328;SDS011;4703;48.748;19.142;2023-10-19T04:45:33;10.40;;;7.00;;
9328;SDS011;4703;48.748;19.142;2023-10-19T04:48:00;10.30;;;7.00;;
9328;SDS011;4703;48.748;19.142;2023-10-19T04:50:29;9.33;;;7.77;;
9328;SDS011;4703;48.748;19.142;2023-10-19T04:52:56;11.90;;;8.67;;
9328;SDS011;4703;48.748;19.142;2023-10-19T04:55:23;10.60;;;8.67;;
9328;SDS011;4703;48.748;19.142;2023-10-19T04:57:50;13.57;;;9.00;;
9328;SDS011;4703;48.748;19.142;2023-10-19T05:00:17;10.67;;;7.73;;
9328;SDS011;4703;48.748;19.142;2023-10-19T05:02:47;11.20;;;7.90;;
9328;SDS011;4703;48.748;19.142;2023-10-19T05:05:14;12.63;;;8.13;;
9328;SDS011;4703;48.748;19.142;2023-10-19T05:07:43;10.20;;;7.37;;
9328;SDS011;4703;48.748;19.142;2023-10-19T05:10:11;12.50;;;8.13;;
9328;SDS011;4703;48.748;19.142;2023-10-19T05:12:38;9.10;;;8.20;;
9328;SDS011;4703;48.748;19.142;2023-10-19T05:15:05;9.60;;;7.03;;
9328;SDS011;4703;48.748;19.142;2023-10-19T05:17:33;14.20;;;8.87;;
9328;SDS011;4703;48.748;19.142;2023-10-19T05:20:00;13.50;;;9.23;;
9328;SDS011;4703;48.748;19.142;2023-10-19T05:22:27;8.33;;;6.73;;
9328;SDS011;4703;48.748;19.142;2023-10-19T05:24:58;11.70;;;7.60;;
9328;SDS011;4703;48.748;19.142;2023-10-19T05:27:25;8.77;;;7.00;;
9328;SDS011;4703;48.748;19.142;2023-10-19T05:29:52;8.10;;;7.10;;
9328;SDS011;4703;48.748;19.142;2023-10-19T05:32:20;8.23;;;6.70;;
9328;SDS011;4703;48.748;19.142;2023-10-19T05:34:47;12.73;;;7.70;;
9328;SDS011;4703;48.748;19.142;2023-10-19T05:37:14;10.00;;;7.67;;
9328;SDS011;4703;48.748;19.142;2023-10-19T05:39:43;10.00;;;8.30;;
9328;SDS011;4703;48.748;19.142;2023-10-19T05:42:12;10.40;;;8.43;;
9328;SDS011;4703;48.748;19.142;2023-10-19T05:44:39;9.83;;;7.80;;
9328;SDS011;4703;48.748;19.142;2023-10-19T05:47:06;12.70;;;9.17;;
9328;SDS011;4703;48.748;19.142;2023-10-19T05:49:33;21.90;;;10.93;;
9328;SDS011;4703;48.748;19.142;2023-10-19T05:52:00;11.00;;;9.73;;
9328;SDS011;4703;48.748;19.142;2023-10-19T05:54:29;8.87;;;7.97;;
9328;SDS011;4703;48.748;19.142;2023-10-19T05:56:57;13.43;;;9.20;;
9328;SDS011;4703;48.748;19.142;2023-10-19T05:59:25;9.57;;;8.30;;
9328;SDS011;4703;48.748;19.142;2023-10-19T06:01:53;15.87;;;8.37;;
9328;SDS011;4703;48.748;19.142;2023-10-19T06:04:20;9.73;;;8.30;;
9328;SDS011;4703;48.748;19.142;2023-10-19T06:06:47;13.60;;;10.53;;
9328;SDS011;4703;48.748;19.142;2023-10-19T06:09:15;11.87;;;8.87;;
9328;SDS011;4703;48.748;19.142;2023-10-19T06:11:44;14.43;;;10.73;;
9328;SDS011;4703;48.748;19.142;2023-10-19T06:14:12;16.70;;;11.27;;
9328;SDS011;4703;48.748;19.142;2023-10-19T06:16:40;19.07;;;12.70;;
9328;SDS011;4703;48.748;19.142;2023-10-19T06:19:07;13.10;;;10.40;;
9328;SDS011;4703;48.748;19.142;2023-10-19T06:21:35;16.50;;;9.13;;
9328;SDS011;4703;48.748;19.142;2023-10-19T06:24:03;12.00;;;8.77;;
9328;SDS011;4703;48.748;19.142;2023-10-19T06:26:31;13.53;;;9.00;;
9328;SDS011;4703;48.748;19.142;2023-10-19T06:28:58;13.60;;;10.10;;
9328;SDS011;4703;48.748;19.142;2023-10-19T06:31:26;10.70;;;8.70;;
9328;SDS011;4703;48.748;19.142;2023-10-19T06:33:55;12.00;;;9.30;;
9328;SDS011;4703;48.748;19.142;2023-10-19T06:36:23;10.60;;;9.00;;
9328;SDS011;4703;48.748;19.142;2023-10-19T06:38:50;10.50;;;8.80;;
9328;SDS011;4703;48.748;19.142;2023-10-19T06:41:17;11.47;;;9.10;;
9328;SDS011;4703;48.748;19.142;2023-10-19T06:43:44;11.40;;;9.17;;
9328;SDS011;4703;48.748;19.142;2023-10-19T06:46:13;14.33;;;10.00;;
9328;SDS011;4703;48.748;19.142;2023-10-19T06:48:41;11.23;;;9.23;;
9328;SDS011;4703;48.748;19.142;2023-10-19T06:51:09;12.10;;;9.50;;
9328;SDS011;4703;48.748;19.142;2023-10-19T06:53:38;12.83;;;10.00;;
9328;SDS011;4703;48.748;19.142;2023-10-19T06:56:05;16.17;;;11.10;;
9328;SDS011;4703;48.748;19.142;2023-10-19T06:58:33;15.50;;;10.40;;
9328;SDS011;4703;48.748;19.142;2023-10-19T07:01:00;12.70;;;10.50;;
9328;SDS011;4703;48.748;19.142;2023-10-19T07:03:34;14.67;;;10.90;;
9328;SDS011;4703;48.748;19.142;2023-10-19T07:06:01;19.90;;;10.37;;
9328;SDS011;4703;48.748;19.142;2023-10-19T07:08:34;13.93;;;10.17;;
9328;SDS011;4703;48.748;19.142;2023-10-19T07:11:01;13.93;;;11.90;;
9328;SDS011;4703;48.748;19.142;2023-10-19T07:13:28;12.23;;;10.93;;
9328;SDS011;4703;48.748;19.142;2023-10-19T07:15:59;15.00;;;12.17;;
9328;SDS011;4703;48.748;19.142;2023-10-19T07:18:27;13.60;;;10.67;;
9328;SDS011;4703;48.748;19.142;2023-10-19T07:20:55;15.10;;;11.67;;
9328;SDS011;4703;48.748;19.142;2023-10-19T07:23:29;15.00;;;10.77;;
9328;SDS011;4703;48.748;19.142;2023-10-19T07:25:57;17.27;;;11.97;;
9328;SDS011;4703;48.748;19.142;2023-10-19T07:28:27;15.97;;;11.70;;
9328;SDS011;4703;48.748;19.142;2023-10-19T07:30:55;15.60;;;11.80;;
9328;SDS011;4703;48.748;19.142;2023-10-19T07:33:23;13.80;;;10.97;;
9328;SDS011;4703;48.748;19.142;2023-10-19T07:35:50;13.90;;;12.40;;
9328;SDS011;4703;48.748;19.142;2023-10-19T07:38:22;15.33;;;12.80;;
9328;SDS011;4703;48.748;19.142;2023-10-19T07:40:50;18.73;;;12.87;;
9328;SDS011;4703;48.748;19.142;2023-10-19T07:43:20;14.47;;;12.40;;
9328;SDS011;4703;48.748;19.142;2023-10-19T07:45:48;13.00;;;11.53;;
9328;SDS011;4703;48.748;19.142;2023-10-19T07:48:16;18.67;;;13.60;;
9328;SDS011;4703;48.748;19.142;2023-10-19T07:50:44;15.33;;;11.70;;
9328;SDS011;4703;48.748;19.142;2023-10-19T07:53:11;16.83;;;12.63;;
9328;SDS011;4703;48.748;19.142;2023-10-19T07:55:38;13.50;;;12.07;;
9328;SDS011;4703;48.748;19.142;2023-10-19T07:58:06;17.83;;;13.13;;
9328;SDS011;4703;48.748;19.142;2023-10-19T08:00:33;22.07;;;11.43;;
9328;SDS011;4703;48.748;19.142;2023-10-19T08:03:01;18.10;;;12.50;;
9328;SDS011;4703;48.748;19.142;2023-10-19T08:05:29;15.40;;;12.00;;
9328;SDS011;4703;48.748;19.142;2023-10-19T08:07:57;13.57;;;11.10;;
9328;SDS011;4703;48.748;19.142;2023-10-19T08:10:26;15.27;;;11.90;;
9328;SDS011;4703;48.748;19.142;2023-10-19T08:12:53;14.00;;;12.50;;
9328;SDS011;4703;48.748;19.142;2023-10-19T08:15:22;15.30;;;12.87;;
9328;SDS011;4703;48.748;19.142;2023-10-19T08:17:50;15.03;;;11.93;;
9328;SDS011;4703;48.748;19.142;2023-10-19T08:20:20;17.33;;;13.10;;
9328;SDS011;4703;48.748;19.142;2023-10-19T08:22:52;19.40;;;13.30;;
9328;SDS011;4703;48.748;19.142;2023-10-19T08:25:27;16.73;;;13.43;;
9328;SDS011;4703;48.748;19.142;2023-10-19T08:28:02;17.97;;;12.73;;
9328;SDS011;4703;48.748;19.142;2023-10-19T08:30:29;14.90;;;12.90;;
9328;SDS011;4703;48.748;19.142;2023-10-19T08:32:56;20.07;;;14.60;;
9328;SDS011;4703;48.748;19.142;2023-10-19T08:35:24;19.83;;;15.83;;
9328;SDS011;4703;48.748;19.142;2023-10-19T08:37:53;17.33;;;13.00;;
9328;SDS011;4703;48.748;19.142;2023-10-19T08:40:24;18.27;;;14.03;;
9328;SDS011;4703;48.748;19.142;2023-10-19T08:42:56;22.60;;;14.13;;
9328;SDS011;4703;48.748;19.142;2023-10-19T08:45:23;17.43;;;13.63;;
9328;SDS011;4703;48.748;19.142;2023-10-19T08:47:55;17.30;;;12.97;;
9328;SDS011;4703;48.748;19.142;2023-10-19T08:50:31;16.67;;;12.90;;
9328;SDS011;4703;48.748;19.142;2023-10-19T08:53:01;16.87;;;11.87;;
9328;SDS011;4703;48.748;19.142;2023-10-19T08:55:30;13.97;;;11.47;;
9328;SDS011;4703;48.748;19.142;2023-10-19T08:58:14;14.80;;;11.90;;
9328;SDS011;4703;48.748;19.142;2023-10-19T09:00:49;15.03;;;12.47;;
9328;SDS011;4703;48.748;19.142;2023-10-19T09:03:23;15.30;;;11.47;;
9328;SDS011;4703;48.748;19.142;2023-10-19T09:05:53;13.43;;;11.63;;
9328;SDS011;4703;48.748;19.142;2023-10-19T09:08:21;14.87;;;12.50;;
9328;SDS011;4703;48.748;19.142;2023-10-19T09:10:50;15.67;;;12.87;;
9328;SDS011;4703;48.748;19.142;2023-10-19T09:13:22;13.53;;;11.57;;
9328;SDS011;4703;48.748;19.142;2023-10-19T09:15:51;18.07;;;12.73;;
9328;SDS011;4703;48.748;19.142;2023-10-19T09:18:23;14.97;;;11.47;;
9328;SDS011;4703;48.748;19.142;2023-10-19T09:20:55;15.93;;;12.43;;
9328;SDS011;4703;48.748;19.142;2023-10-19T09:23:29;17.37;;;11.67;;
9328;SDS011;4703;48.748;19.142;2023-10-19T09:25:57;19.07;;;16.70;;
9328;SDS011;4703;48.748;19.142;2023-10-19T09:28:30;24.90;;;18.70;;
9328;SDS011;4703;48.748;19.142;2023-10-19T09:31:06;29.13;;;19.57;;
9328;SDS011;4703;48.748;19.142;2023-10-19T09:33:37;21.83;;;15.60;;
9328;SDS011;4703;48.748;19.142;2023-10-19T09:36:07;15.60;;;12.50;;
9328;SDS011;4703;48.748;19.142;2023-10-19T09:38:44;16.23;;;11.70;;
9328;SDS011;4703;48.748;19.142;2023-10-19T09:41:17;13.50;;;11.67;;
9328;SDS011;4703;48.748;19.142;2023-10-19T09:43:50;18.40;;;13.30;;
9328;SDS011;4703;48.748;19.142;2023-10-19T09:46:21;14.73;;;11.47;;
9328;SDS011;4703;48.748;19.142;2023-10-19T09:48:52;17.70;;;13.07;;
9328;SDS011;4703;48.748;19.142;2023-10-19T09:51:20;15.60;;;11.93;;
9328;SDS011;4703;48.748;19.142;2023-10-19T09:57:10;16.47;;;14.10;;
9328;SDS011;4703;48.748;19.142;2023-10-19T09:59:44;18.80;;;14.40;;
9328;SDS011;4703;48.748;19.142;2023-10-19T10:02:15;20.37;;;13.70;;
9328;SDS011;4703;48.748;19.142;2023-10-19T10:04:44;17.77;;;13.40;;
9328;SDS011;4703;48.748;19.142;2023-10-19T10:07:15;17.33;;;14.77;;
9328;SDS011;4703;48.748;19.142;2023-10-19T10:10:03;19.07;;;15.30;;
9328;SDS011;4703;48.748;19.142;2023-10-19T10:12:31;18.87;;;15.13;;
9328;SDS011;4703;48.748;19.142;2023-10-19T10:15:04;17.63;;;14.27;;
9328;SDS011;4703;48.748;19.142;2023-10-19T10:17:37;20.30;;;15.93;;
9328;SDS011;4703;48.748;19.142;2023-10-19T10:22:41;29.90;;;20.97;;
9328;SDS011;4703;48.748;19.142;2023-10-19T10:25:25;31.83;;;23.93;;
9328;SDS011;4703;48.748;19.142;2023-10-19T10:27:56;24.23;;;19.97;;
9328;SDS011;4703;48.748;19.142;2023-10-19T10:30:24;23.13;;;18.03;;
9328;SDS011;4703;48.748;19.142;2023-10-19T10:32:52;19.83;;;15.17;;
9328;SDS011;4703;48.748;19.142;2023-10-19T10:36:23;18.57;;;14.80;;
9328;SDS011;4703;48.748;19.142;2023-10-19T10:38:20;19.27;;;14.23;;
9328;SDS011;4703;48.748;19.142;2023-10-19T10:40:50;16.43;;;14.23;;
9328;SDS011;4703;48.748;19.142;2023-10-19T10:43:18;17.10;;;14.50;;
9328;SDS011;4703;48.748;19.142;2023-10-19T10:45:47;20.47;;;13.37;;
9328;SDS011;4703;48.748;19.142;2023-10-19T10:48:15;20.17;;;15.40;;
9328;SDS011;4703;48.748;19.142;2023-10-19T10:50:43;28.13;;;23.47;;
9328;SDS011;4703;48.748;19.142;2023-10-19T10:53:15;30.27;;;22.53;;
9328;SDS011;4703;48.748;19.142;2023-10-19T10:55:42;28.87;;;22.33;;
9328;SDS011;4703;48.748;19.142;2023-10-19T10:58:14;23.30;;;17.83;;
9328;SDS011;4703;48.748;19.142;2023-10-19T11:00:42;18.97;;;16.30;;
9328;SDS011;4703;48.748;19.142;2023-10-19T11:03:13;19.67;;;16.27;;
9328;SDS011;4703;48.748;19.142;2023-10-19T11:05:41;20.23;;;16.37;;
9328;SDS011;4703;48.748;19.142;2023-10-19T11:08:13;21.03;;;18.40;;
9328;SDS011;4703;48.748;19.142;2023-10-19T11:10:45;17.73;;;15.63;;
9328;SDS011;4703;48.748;19.142;2023-10-19T11:13:14;16.93;;;15.13;;
9328;SDS011;4703;48.748;19.142;2023-10-19T11:15:47;16.17;;;14.37;;
9328;SDS011;4703;48.748;19.142;2023-10-19T11:18:31;17.97;;;16.07;;
9328;SDS011;4703;48.748;19.142;2023-10-19T11:21:05;23.07;;;19.50;;
9328;SDS011;4703;48.748;19.142;2023-10-19T11:26:21;19.67;;;17.47;;
9328;SDS011;4703;48.748;19.142;2023-10-19T11:28:57;20.37;;;17.13;;
9328;SDS011;4703;48.748;19.142;2023-10-19T11:31:30;21.10;;;18.30;;
9328;SDS011;4703;48.748;19.142;2023-10-19T11:34:07;21.07;;;18.87;;
9328;SDS011;4703;48.748;19.142;2023-10-19T11:36:36;21.53;;;17.40;;
9328;SDS011;4703;48.748;19.142;2023-10-19T11:39:03;31.27;;;24.80;;
9328;SDS011;4703;48.748;19.142;2023-10-19T11:41:38;22.07;;;19.20;;
9328;SDS011;4703;48.748;19.142;2023-10-19T11:44:05;18.53;;;16.70;;
9328;SDS011;4703;48.748;19.142;2023-10-19T11:46:34;16.03;;;14.57;;
9328;SDS011;4703;48.748;19.142;2023-10-19T11:49:01;15.10;;;13.60;;
9328;SDS011;4703;48.748;19.142;2023-10-19T11:51:29;14.00;;;12.60;;
9328;SDS011;4703;48.748;19.142;2023-10-19T11:53:57;15.83;;;14.13;;
9328;SDS011;4703;48.748;19.142;2023-10-19T11:56:24;12.30;;;11.10;;
9328;SDS011;4703;48.748;19.142;2023-10-19T11:58:51;11.87;;;10.60;;
9328;SDS011;4703;48.748;19.142;2023-10-19T12:01:19;10.00;;;9.10;;
9328;SDS011;4703;48.748;19.142;2023-10-19T12:03:46;10.37;;;9.33;;
9328;SDS011;4703;48.748;19.142;2023-10-19T12:06:15;13.20;;;11.93;;
9328;SDS011;4703;48.748;19.142;2023-10-19T12:08:46;12.17;;;10.83;;
9328;SDS011;4703;48.748;19.142;2023-10-19T12:11:13;14.90;;;11.10;;
9328;SDS011;4703;48.748;19.142;2023-10-19T12:13:45;12.80;;;11.50;;
9328;SDS011;4703;48.748;19.142;2023-10-19T12:16:14;20.00;;;17.50;;
9328;SDS011;4703;48.748;19.142;2023-10-19T12:18:43;48.00;;;32.83;;
9328;SDS011;4703;48.748;19.142;2023-10-19T12:21:11;31.70;;;24.40;;
9328;SDS011;4703;48.748;19.142;2023-10-19T12:23:43;24.57;;;18.70;;
9328;SDS011;4703;48.748;19.142;2023-10-19T12:26:11;15.17;;;13.63;;
9328;SDS011;4703;48.748;19.142;2023-10-19T12:28:39;17.00;;;13.03;;
9328;SDS011;4703;48.748;19.142;2023-10-19T12:31:07;16.90;;;14.73;;
9328;SDS011;4703;48.748;19.142;2023-10-19T12:33:35;16.50;;;13.70;;
9328;SDS011;4703;48.748;19.142;2023-10-19T12:36:05;16.83;;;13.80;;
9328;SDS011;4703;48.748;19.142;2023-10-19T12:39:04;20.90;;;15.73;;
9328;SDS011;4703;48.748;19.142;2023-10-19T12:41:34;15.70;;;13.57;;
9328;SDS011;4703;48.748;19.142;2023-10-19T12:44:01;13.20;;;11.90;;
9328;SDS011;4703;48.748;19.142;2023-10-19T12:46:34;13.57;;;12.13;;
9328;SDS011;4703;48.748;19.142;2023-10-19T12:49:06;13.40;;;12.10;;
9328;SDS011;4703;48.748;19.142;2023-10-19T12:51:42;13.10;;;11.87;;
9328;SDS011;4703;48.748;19.142;2023-10-19T12:54:11;12.60;;;11.30;;
9328;SDS011;4703;48.748;19.142;2023-10-19T12:56:39;14.60;;;12.30;;
9328;SDS011;4703;48.748;19.142;2023-10-19T12:59:06;14.67;;;12.10;;
9328;SDS011;4703;48.748;19.142;2023-10-19T13:01:34;12.03;;;10.73;;
9328;SDS011;4703;48.748;19.142;2023-10-19T13:04:02;12.13;;;10.77;;
9328;SDS011;4703;48.748;19.142;2023-10-19T13:06:40;13.80;;;10.60;;
9328;SDS011;4703;48.748;19.142;2023-10-19T13:09:07;10.50;;;9.37;;
9328;SDS011;4703;48.748;19.142;2023-10-19T13:11:35;14.17;;;11.23;;
9328;SDS011;4703;48.748;19.142;2023-10-19T13:14:02;20.93;;;14.30;;
9328;SDS011;4703;48.748;19.142;2023-10-19T13:16:32;19.70;;;13.80;;
9328;SDS011;4703;48.748;19.142;2023-10-19T13:19:00;15.60;;;12.03;;
9328;SDS011;4703;48.748;19.142;2023-10-19T13:21:35;15.73;;;11.70;;
9328;SDS011;4703;48.748;19.142;2023-10-19T13:24:04;17.23;;;14.20;;
9328;SDS011;4703;48.748;19.142;2023-10-19T13:26:32;50.97;;;33.33;;
9328;SDS011;4703;48.748;19.142;2023-10-19T13:29:00;38.40;;;26.10;;
9328;SDS011;4703;48.748;19.142;2023-10-19T13:31:28;24.60;;;19.63;;
9328;SDS011;4703;48.748;19.142;2023-10-19T13:33:58;19.20;;;14.80;;
9328;SDS011;4703;48.748;19.142;2023-10-19T13:36:26;19.17;;;14.87;;
9328;SDS011;4703;48.748;19.142;2023-10-19T13:38:52;16.60;;;13.87;;
9328;SDS011;4703;48.748;19.142;2023-10-19T13:41:20;13.73;;;12.37;;
9328;SDS011;4703;48.748;19.142;2023-10-19T13:43:48;13.80;;;12.00;;
9328;SDS011;4703;48.748;19.142;2023-10-19T13:46:15;14.70;;;13.30;;
9328;SDS011;4703;48.748;19.142;2023-10-19T13:48:42;13.90;;;12.17;;
9328;SDS011;4703;48.748;19.142;2023-10-19T13:51:10;15.17;;;13.40;;
9328;SDS011;4703;48.748;19.142;2023-10-19T13:53:40;19.03;;;14.20;;
9328;SDS011;4703;48.748;19.142;2023-10-19T13:56:08;14.03;;;12.13;;
9328;SDS011;4703;48.748;19.142;2023-10-19T13:58:36;17.43;;;15.47;;
9328;SDS011;4703;48.748;19.142;2023-10-19T14:01:08;17.20;;;15.40;;
9328;SDS011;4703;48.748;19.142;2023-10-19T14:03:39;17.97;;;16.07;;
9328;SDS011;4703;48.748;19.142;2023-10-19T14:06:11;18.10;;;15.10;;
9328;SDS011;4703;48.748;19.142;2023-10-19T14:08:39;18.07;;;14.40;;
9328;SDS011;4703;48.748;19.142;2023-10-19T14:11:07;16.30;;;14.23;;
9328;SDS011;4703;48.748;19.142;2023-10-19T14:13:34;17.00;;;14.03;;
9328;SDS011;4703;48.748;19.142;2023-10-19T14:16:05;15.83;;;14.10;;
9328;SDS011;4703;48.748;19.142;2023-10-19T14:18:35;16.77;;;14.97;;
9328;SDS011;4703;48.748;19.142;2023-10-19T14:21:16;17.77;;;15.90;;
9328;SDS011;4703;48.748;19.142;2023-10-19T14:23:48;21.83;;;16.73;;
9328;SDS011;4703;48.748;19.142;2023-10-19T14:26:15;20.20;;;16.07;;
9328;SDS011;4703;48.748;19.142;2023-10-19T14:28:44;18.10;;;16.07;;
9328;SDS011;4703;48.748;19.142;2023-10-19T14:31:11;21.10;;;15.90;;
9328;SDS011;4703;48.748;19.142;2023-10-19T14:33:39;20.20;;;16.10;;
9328;SDS011;4703;48.748;19.142;2023-10-19T14:36:06;19.93;;;16.07;;
9328;SDS011;4703;48.748;19.142;2023-10-19T14:38:34;17.27;;;15.40;;
9328;SDS011;4703;48.748;19.142;2023-10-19T14:41:02;16.83;;;14.70;;
9328;SDS011;4703;48.748;19.142;2023-10-19T14:43:29;16.73;;;14.43;;
9328;SDS011;4703;48.748;19.142;2023-10-19T14:45:56;19.40;;;15.60;;
9328;SDS011;4703;48.748;19.142;2023-10-19T14:48:23;17.53;;;15.30;;
9328;SDS011;4703;48.748;19.142;2023-10-19T14:50:51;19.63;;;16.30;;
9328;SDS011;4703;48.748;19.142;2023-10-19T14:53:20;20.80;;;17.10;;
9328;SDS011;4703;48.748;19.142;2023-10-19T14:55:48;18.93;;;16.93;;
9328;SDS011;4703;48.748;19.142;2023-10-19T14:58:15;18.90;;;16.57;;
9328;SDS011;4703;48.748;19.142;2023-10-19T15:00:44;19.30;;;17.30;;
9328;SDS011;4703;48.748;19.142;2023-10-19T15:03:12;22.17;;;17.97;;
9328;SDS011;4703;48.748;19.142;2023-10-19T15:05:40;21.73;;;17.53;;
9328;SDS011;4703;48.748;19.142;2023-10-19T15:08:08;20.83;;;18.63;;
9328;SDS011;4703;48.748;19.142;2023-10-19T15:10:39;21.50;;;18.80;;
9328;SDS011;4703;48.748;19.142;2023-10-19T15:13:08;25.47;;;21.83;;
9328;SDS011;4703;48.748;19.142;2023-10-19T15:15:35;32.90;;;24.23;;